La rose des vents
Donnes mto: Semaine 09/06/08 - 15/06/08 (S 24)
Date Horaire Temp. E. Hum. E. P.atmo. Pluie Vent 1mn Direction Ensoleilleme Ev.Tr. Solaire P. de rose Temp au vent Rafales
09/06/2008 00:00 17,8 C 86 % 1013,0 hPa 0,0 l/m 2,3 km/h (1 Bft) NO 0,00 h 0,025 mm 0 W/m 15,3 C 17,8 C 4,2 km/h (1 Bft)
09/06/2008 01:00 17,8 C 86 % 1012,9 hPa 0,0 l/m 0,9 km/h (0 Bft) NO 0,00 h 0,025 mm 0 W/m 15,4 C 17,8 C 2,1 km/h (1 Bft)
09/06/2008 02:00 17,7 C 86 % 1013,1 hPa 0,0 l/m 0,5 km/h (0 Bft) NO 0,00 h 0,025 mm 0 W/m 15,3 C 17,7 C 1,0 km/h (0 Bft)
09/06/2008 03:00 17,3 C 85 % 1013,2 hPa 0,0 l/m 1,6 km/h (1 Bft) NO 0,00 h 0,025 mm 0 W/m 14,8 C 17,3 C 3,4 km/h (1 Bft)
09/06/2008 04:00 16,7 C 86 % 1012,9 hPa 0,0 l/m 2,1 km/h (1 Bft) O-NO 0,00 h 0,025 mm 0 W/m 14,3 C 16,7 C 3,3 km/h (1 Bft)
09/06/2008 05:00 16,2 C 87 % 1013,2 hPa 0,0 l/m 2,8 km/h (1 Bft) O-NO 0,00 h 0,025 mm 6 W/m 14,0 C 16,2 C 4,5 km/h (1 Bft)
09/06/2008 06:00 16,1 C 87 % 1013,6 hPa 0,0 l/m 2,8 km/h (1 Bft) O-NO 0,02 h 0,000 mm 23 W/m 13,9 C 16,1 C 5,1 km/h (1 Bft)
09/06/2008 07:00 17,6 C 85 % 1014,1 hPa 0,0 l/m 0,3 km/h (0 Bft) NO 0,42 h 0,025 mm 132 W/m 14,9 C 17,6 C 0,7 km/h (0 Bft)
09/06/2008 08:00 20,7 C 72 % 1014,6 hPa 0,0 l/m 1,5 km/h (1 Bft) E 1,00 h 0,076 mm 356 W/m 15,4 C 20,7 C 3,1 km/h (1 Bft)
09/06/2008 09:00 22,0 C 66 % 1015,2 hPa 0,0 l/m 3,9 km/h (1 Bft) E 1,00 h 0,229 mm 526 W/m 15,4 C 22,0 C 6,6 km/h (2 Bft)
09/06/2008 10:00 22,8 C 65 % 1015,4 hPa 0,0 l/m 9,0 km/h (2 Bft) E 1,00 h 0,330 mm 694 W/m 15,8 C 22,8 C 13,4 km/h (3 Bft)
09/06/2008 11:00 22,9 C 65 % 1015,8 hPa 0,0 l/m 8,5 km/h (2 Bft) E 1,00 h 0,483 mm 804 W/m 16,1 C 22,9 C 14,1 km/h (3 Bft)
09/06/2008 12:00 23,3 C 66 % 1016,1 hPa 0,0 l/m 11,8 km/h (2 Bft) E 0,83 h 0,533 mm 839 W/m 16,6 C 23,3 C 17,8 km/h (3 Bft)
09/06/2008 13:00 23,8 C 67 % 1016,3 hPa 0,0 l/m 11,2 km/h (2 Bft) E 0,93 h 0,584 mm 793 W/m 17,4 C 23,8 C 17,2 km/h (3 Bft)
09/06/2008 14:00 22,7 C 70 % 1016,4 hPa 0,0 l/m 8,8 km/h (2 Bft) E-NE 0,50 h 0,533 mm 559 W/m 17,0 C 22,7 C 13,5 km/h (3 Bft)
09/06/2008 15:00 22,8 C 70 % 1016,5 hPa 0,0 l/m 6,8 km/h (2 Bft) E-NE 0,63 h 0,381 mm 595 W/m 16,9 C 22,8 C 10,5 km/h (2 Bft)
09/06/2008 16:00 23,6 C 63 % 1016,4 hPa 0,0 l/m 5,7 km/h (1 Bft) E 1,00 h 0,406 mm 728 W/m 16,1 C 23,6 C 9,3 km/h (2 Bft)
09/06/2008 17:00 23,6 C 59 % 1016,3 hPa 0,0 l/m 4,6 km/h (1 Bft) E 1,00 h 0,483 mm 559 W/m 15,2 C 23,6 C 8,7 km/h (2 Bft)
09/06/2008 18:00 22,8 C 61 % 1016,2 hPa 0,0 l/m 2,7 km/h (1 Bft) E-SE 0,92 h 0,381 mm 360 W/m 15,0 C 22,8 C 6,0 km/h (2 Bft)
09/06/2008 19:00 22,2 C 66 % 1016,2 hPa 0,0 l/m 1,4 km/h (1 Bft) E 0,97 h 0,229 mm 200 W/m 15,5 C 22,2 C 3,2 km/h (1 Bft)
09/06/2008 20:00 20,7 C 71 % 1016,2 hPa 0,0 l/m 0,8 km/h (0 Bft) E 0,05 h 0,127 mm 28 W/m 15,3 C 20,7 C 1,8 km/h (1 Bft)
09/06/2008 21:00 18,7 C 83 % 1016,8 hPa 0,0 l/m 2,8 km/h (1 Bft) E 0,00 h 0,025 mm 5 W/m 15,8 C 18,7 C 4,2 km/h (1 Bft)
09/06/2008 22:00 17,5 C 86 % 1017,4 hPa 0,0 l/m 2,1 km/h (1 Bft) NO 0,00 h 0,025 mm 0 W/m 15,1 C 17,5 C 4,1 km/h (1 Bft)
09/06/2008 23:00 17,1 C 86 % 1018,0 hPa 0,0 l/m 3,0 km/h (1 Bft) O-NO 0,00 h 0,025 mm 0 W/m 14,7 C 17,1 C 4,9 km/h (1 Bft)
10/06/2008 00:00 16,9 C 84 % 1018,0 hPa 0,0 l/m 3,5 km/h (1 Bft) NO 0,00 h 0,025 mm 0 W/m 14,2 C 16,9 C 5,4 km/h (1 Bft)
10/06/2008 01:00 16,8 C 83 % 1017,8 hPa 0,0 l/m 3,0 km/h (1 Bft) NO 0,00 h 0,025 mm 0 W/m 13,8 C 16,8 C 5,1 km/h (1 Bft)
10/06/2008 02:00 16,9 C 79 % 1017,7 hPa 0,0 l/m 4,3 km/h (1 Bft) NO 0,00 h 0,025 mm 0 W/m 13,2 C 16,9 C 6,1 km/h (2 Bft)
10/06/2008 03:00 17,0 C 78 % 1017,5 hPa 0,0 l/m 4,6 km/h (1 Bft) NO 0,00 h 0,025 mm 0 W/m 13,2 C 17,0 C 6,8 km/h (2 Bft)
10/06/2008 04:00 17,0 C 78 % 1017,1 hPa 0,0 l/m 3,5 km/h (1 Bft) O-NO 0,00 h 0,025 mm 0 W/m 13,1 C 17,0 C 5,4 km/h (1 Bft)
10/06/2008 05:00 17,1 C 77 % 1017,0 hPa 0,0 l/m 2,8 km/h (1 Bft) N-NO 0,00 h 0,025 mm 7 W/m 13,0 C 17,1 C 4,2 km/h (1 Bft)
10/06/2008 06:00 17,4 C 77 % 1017,1 hPa 0,0 l/m 2,2 km/h (1 Bft) N-NO 0,17 h 0,025 mm 37 W/m 13,3 C 17,4 C 3,7 km/h (1 Bft)
10/06/2008 07:00 19,3 C 72 % 1017,3 hPa 0,0 l/m 0,3 km/h (0 Bft) N-NO 0,47 h 0,025 mm 160 W/m 14,1 C 19,3 C 0,8 km/h (0 Bft)
10/06/2008 08:00 22,0 C 68 % 1017,4 hPa 0,0 l/m 0,3 km/h (0 Bft) E-NE 1,00 h 0,102 mm 364 W/m 15,7 C 22,0 C 1,2 km/h (1 Bft)
10/06/2008 09:00 23,5 C 61 % 1017,5 hPa 0,0 l/m 2,4 km/h (1 Bft) E 1,00 h 0,229 mm 533 W/m 15,4 C 23,5 C 4,6 km/h (1 Bft)
10/06/2008 10:00 24,5 C 57 % 1017,7 hPa 0,0 l/m 6,5 km/h (2 Bft) E 1,00 h 0,356 mm 681 W/m 15,3 C 24,5 C 10,4 km/h (2 Bft)
10/06/2008 11:00 24,8 C 56 % 1018,1 hPa 0,0 l/m 6,3 km/h (2 Bft) E 1,00 h 0,483 mm 801 W/m 15,3 C 24,8 C 9,9 km/h (2 Bft)
10/06/2008 12:00 24,9 C 54 % 1018,5 hPa 0,0 l/m 8,8 km/h (2 Bft) E 1,00 h 0,533 mm 873 W/m 15,0 C 24,9 C 13,6 km/h (3 Bft)
10/06/2008 13:00 24,8 C 59 % 1018,4 hPa 0,0 l/m 10,8 km/h (2 Bft) E-NE 1,00 h 0,610 mm 901 W/m 16,2 C 24,8 C 16,7 km/h (3 Bft)
10/06/2008 14:00 24,8 C 61 % 1018,2 hPa 0,0 l/m 8,3 km/h (2 Bft) E 1,00 h 0,635 mm 878 W/m 16,8 C 24,8 C 13,4 km/h (3 Bft)
10/06/2008 15:00 24,7 C 64 % 1017,9 hPa 0,0 l/m 8,3 km/h (2 Bft) E 1,00 h 0,610 mm 806 W/m 17,5 C 24,7 C 13,2 km/h (3 Bft)
10/06/2008 16:00 24,6 C 64 % 1017,5 hPa 0,0 l/m 5,5 km/h (1 Bft) E 1,00 h 0,559 mm 688 W/m 17,3 C 24,6 C 9,8 km/h (2 Bft)
10/06/2008 17:00 24,9 C 58 % 1017,0 hPa 0,0 l/m 4,7 km/h (1 Bft) E-NE 1,00 h 0,457 mm 539 W/m 16,1 C 24,9 C 7,6 km/h (2 Bft)
10/06/2008 18:00 24,1 C 60 % 1016,6 hPa 0,0 l/m 3,2 km/h (1 Bft) E 1,00 h 0,381 mm 370 W/m 16,0 C 24,1 C 5,5 km/h (1 Bft)
10/06/2008 19:00 23,3 C 63 % 1016,4 hPa 0,0 l/m 1,7 km/h (1 Bft) E-SE 0,95 h 0,254 mm 195 W/m 15,9 C 23,3 C 3,9 km/h (1 Bft)
10/06/2008 20:00 21,1 C 72 % 1016,5 hPa 0,0 l/m 0,7 km/h (0 Bft) E-SE 0,00 h 0,127 mm 20 W/m 15,7 C 21,1 C 1,9 km/h (1 Bft)
10/06/2008 21:00 19,2 C 79 % 1016,4 hPa 0,0 l/m 0,1 km/h (0 Bft) E-SE 0,00 h 0,025 mm 6 W/m 15,4 C 19,2 C 0,2 km/h (0 Bft)
10/06/2008 22:00 18,3 C 82 % 1016,4 hPa 0,0 l/m 0,8 km/h (0 Bft) E-SE 0,00 h 0,000 mm 0 W/m 15,1 C 18,3 C 1,3 km/h (1 Bft)
10/06/2008 23:00 17,7 C 86 % 1016,4 hPa 0,0 l/m 1,8 km/h (1 Bft) NO 0,00 h 0,025 mm 0 W/m 15,3 C 17,7 C 3,2 km/h (1 Bft)
11/06/2008 00:00 17,3 C 86 % 1016,6 hPa 0,0 l/m 1,8 km/h (1 Bft) NO 0,00 h 0,025 mm 0 W/m 15,0 C 17,3 C 2,9 km/h (1 Bft)
11/06/2008 01:00 17,1 C 85 % 1016,3 hPa 0,0 l/m 3,0 km/h (1 Bft) NO 0,00 h 0,025 mm 0 W/m 14,6 C 17,1 C 4,3 km/h (1 Bft)
11/06/2008 02:00 16,7 C 84 % 1016,1 hPa 0,0 l/m 3,9 km/h (1 Bft) NO 0,00 h 0,025 mm 0 W/m 13,9 C 16,7 C 5,5 km/h (1 Bft)
11/06/2008 03:00 16,1 C 85 % 1015,7 hPa 0,0 l/m 4,2 km/h (1 Bft) NO 0,00 h 0,025 mm 0 W/m 13,6 C 16,1 C 6,1 km/h (2 Bft)
11/06/2008 04:00 16,0 C 83 % 1015,4 hPa 0,0 l/m 2,9 km/h (1 Bft) O 0,00 h 0,025 mm 0 W/m 13,1 C 16,0 C 4,2 km/h (1 Bft)
11/06/2008 05:00 16,0 C 82 % 1015,3 hPa 0,0 l/m 3,5 km/h (1 Bft) O-NO 0,00 h 0,025 mm 7 W/m 12,9 C 16,0 C 5,1 km/h (1 Bft)
11/06/2008 06:00 16,0 C 82 % 1015,7 hPa 0,0 l/m 1,4 km/h (1 Bft) O-NO 0,20 h 0,025 mm 32 W/m 13,0 C 16,0 C 2,7 km/h (1 Bft)
11/06/2008 07:00 17,3 C 82 % 1015,9 hPa 0,0 l/m 0,0 km/h (0 Bft) O-NO 0,40 h 0,025 mm 135 W/m 14,1 C 17,3 C 0,1 km/h (0 Bft)
11/06/2008 08:00 20,2 C 74 % 1015,6 hPa 0,0 l/m 1,1 km/h (1 Bft) NE 1,00 h 0,076 mm 370 W/m 15,4 C 20,2 C 3,0 km/h (1 Bft)
11/06/2008 09:00 22,3 C 67 % 1015,4 hPa 0,0 l/m 1,6 km/h (1 Bft) N 1,00 h 0,229 mm 548 W/m 15,9 C 22,3 C 3,8 km/h (1 Bft)
11/06/2008 10:00 23,4 C 67 % 1015,0 hPa 0,0 l/m 6,6 km/h (2 Bft) S-SE 0,98 h 0,330 mm 664 W/m 16,8 C 23,4 C 11,2 km/h (2 Bft)
11/06/2008 11:00 22,2 C 73 % 1015,0 hPa 0,0 l/m 10,9 km/h (2 Bft) S-SE 0,18 h 0,432 mm 409 W/m 17,0 C 22,2 C 15,3 km/h (3 Bft)
11/06/2008 12:00 24,1 C 63 % 1015,1 hPa 0,0 l/m 5,9 km/h (2 Bft) SE 1,00 h 0,330 mm 807 W/m 16,7 C 24,1 C 10,2 km/h (2 Bft)
11/06/2008 13:00 25,2 C 60 % 1014,4 hPa 0,0 l/m 11,3 km/h (2 Bft) E 1,00 h 0,533 mm 905 W/m 16,8 C 25,2 C 16,4 km/h (3 Bft)
11/06/2008 14:00 24,6 C 64 % 1013,7 hPa 0,0 l/m 9,9 km/h (2 Bft) E 0,95 h 0,635 mm 876 W/m 17,3 C 24,6 C 15,4 km/h (3 Bft)
11/06/2008 15:00 24,6 C 62 % 1013,2 hPa 0,0 l/m 10,1 km/h (2 Bft) E 0,67 h 0,610 mm 669 W/m 16,9 C 24,6 C 15,0 km/h (3 Bft)
11/06/2008 16:00 23,1 C 72 % 1012,9 hPa 0,0 l/m 8,8 km/h (2 Bft) E 0,50 h 0,483 mm 445 W/m 17,9 C 23,1 C 13,3 km/h (3 Bft)
11/06/2008 17:00 21,2 C 83 % 1012,7 hPa 0,0 l/m 7,1 km/h (2 Bft) E 0,00 h 0,305 mm 72 W/m 18,1 C 21,2 C 10,4 km/h (2 Bft)
11/06/2008 18:00 20,4 C 86 % 1011,9 hPa 0,0 l/m 1,8 km/h (1 Bft) E 0,00 h 0,076 mm 18 W/m 18,0 C 20,4 C 3,2 km/h (1 Bft)
11/06/2008 19:00 19,8 C 88 % 1011,8 hPa 0,0 l/m 1,5 km/h (1 Bft) S 0,00 h 0,025 mm 17 W/m 17,7 C 19,8 C 2,7 km/h (1 Bft)
11/06/2008 20:00 19,4 C 89 % 1011,5 hPa 0,0 l/m 2,1 km/h (1 Bft) SE 0,00 h 0,025 mm 6 W/m 17,5 C 19,4 C 3,2 km/h (1 Bft)
11/06/2008 21:00 18,9 C 90 % 1011,1 hPa 0,0 l/m 0,6 km/h (0 Bft) SE 0,00 h 0,000 mm 0 W/m 17,3 C 18,9 C 1,5 km/h (1 Bft)
11/06/2008 22:00 18,2 C 91 % 1010,9 hPa 0,0 l/m 0,7 km/h (0 Bft) N 0,00 h 0,000 mm 0 W/m 16,6 C 18,2 C 1,9 km/h (1 Bft)
11/06/2008 23:00 17,5 C 91 % 1010,4 hPa 0,0 l/m 0,7 km/h (0 Bft) O 0,00 h 0,025 mm 0 W/m 16,0 C 17,5 C 1,1 km/h (0 Bft)
12/06/2008 00:00 16,6 C 92 % 1010,0 hPa 0,0 l/m 4,8 km/h (1 Bft) O-SO 0,00 h 0,025 mm 0 W/m 15,3 C 16,6 C 6,3 km/h (2 Bft)
12/06/2008 01:00 16,3 C 92 % 1009,7 hPa 0,0 l/m 0,7 km/h (0 Bft) O 0,00 h 0,025 mm 0 W/m 15,0 C 16,3 C 1,3 km/h (1 Bft)
12/06/2008 02:00 16,3 C 89 % 1009,4 hPa 0,0 l/m 2,8 km/h (1 Bft) O 0,00 h 0,025 mm 0 W/m 14,5 C 16,3 C 4,6 km/h (1 Bft)
12/06/2008 03:00 16,1 C 87 % 1009,1 hPa 0,0 l/m 2,9 km/h (1 Bft) NO 0,00 h 0,025 mm 0 W/m 13,9 C 16,1 C 5,0 km/h (1 Bft)
12/06/2008 04:00 15,7 C 88 % 1008,6 hPa 0,0 l/m 3,0 km/h (1 Bft) N-NO 0,00 h 0,025 mm 0 W/m 13,7 C 15,7 C 4,9 km/h (1 Bft)
12/06/2008 05:00 15,1 C 88 % 1008,4 hPa 0,0 l/m 4,1 km/h (1 Bft) N-NO 0,00 h 0,025 mm 7 W/m 13,1 C 15,1 C 6,0 km/h (2 Bft)
12/06/2008 06:00 15,3 C 88 % 1008,5 hPa 0,0 l/m 2,2 km/h (1 Bft) N-NO 0,05 h 0,025 mm 37 W/m 13,4 C 15,3 C 4,2 km/h (1 Bft)
12/06/2008 07:00 17,6 C 84 % 1008,5 hPa 0,0 l/m 0,9 km/h (0 Bft) N-NO 0,42 h 0,025 mm 145 W/m 14,9 C 17,6 C 2,7 km/h (1 Bft)
12/06/2008 08:00 20,5 C 73 % 1008,6 hPa 0,0 l/m 1,8 km/h (1 Bft) E 0,98 h 0,076 mm 343 W/m 15,5 C 20,5 C 3,7 km/h (1 Bft)
12/06/2008 09:00 21,9 C 68 % 1008,8 hPa 0,0 l/m 6,8 km/h (2 Bft) E-NE 1,00 h 0,203 mm 510 W/m 15,9 C 21,9 C 10,1 km/h (2 Bft)
12/06/2008 10:00 22,8 C 71 % 1008,8 hPa 0,0 l/m 7,9 km/h (2 Bft) E 0,70 h 0,330 mm 601 W/m 17,3 C 22,8 C 11,9 km/h (2 Bft)
12/06/2008 11:00 22,7 C 75 % 1008,6 hPa 0,0 l/m 10,4 km/h (2 Bft) E 0,62 h 0,406 mm 668 W/m 18,1 C 22,7 C 16,0 km/h (3 Bft)
12/06/2008 12:00 23,1 C 72 % 1008,6 hPa 0,0 l/m 11,4 km/h (2 Bft) E 0,73 h 0,457 mm 780 W/m 17,8 C 23,1 C 17,1 km/h (3 Bft)
12/06/2008 13:00 22,9 C 72 % 1008,5 hPa 0,0 l/m 8,2 km/h (2 Bft) E 0,68 h 0,533 mm 837 W/m 17,7 C 22,9 C 13,4 km/h (3 Bft)
12/06/2008 14:00 22,1 C 72 % 1007,9 hPa 0,0 l/m 3,1 km/h (1 Bft) E 0,02 h 0,508 mm 226 W/m 16,8 C 22,1 C 5,3 km/h (1 Bft)
12/06/2008 15:00 20,0 C 85 % 1008,0 hPa 0,6 l/m 4,2 km/h (1 Bft) SO 0,00 h 0,152 mm 96 W/m 17,4 C 20,0 C 6,9 km/h (2 Bft)
12/06/2008 16:00 19,9 C 92 % 1007,4 hPa 0,0 l/m 4,5 km/h (1 Bft) E-SE 0,02 h 0,076 mm 263 W/m 18,5 C 19,9 C 6,7 km/h (2 Bft)
12/06/2008 17:00 20,6 C 88 % 1007,3 hPa 0,0 l/m 3,1 km/h (1 Bft) S-SE 0,23 h 0,152 mm 281 W/m 18,5 C 20,6 C 5,4 km/h (1 Bft)
12/06/2008 18:00 20,4 C 86 % 1006,5 hPa 0,0 l/m 1,5 km/h (1 Bft) S-SE 0,13 h 0,178 mm 134 W/m 18,1 C 20,4 C 3,3 km/h (1 Bft)
12/06/2008 19:00 20,7 C 83 % 1006,2 hPa 0,0 l/m 1,3 km/h (1 Bft) E 0,27 h 0,076 mm 115 W/m 17,7 C 20,7 C 2,6 km/h (1 Bft)
12/06/2008 20:00 19,7 C 87 % 1005,8 hPa 0,0 l/m 1,7 km/h (1 Bft) S 0,00 h 0,076 mm 37 W/m 17,4 C 19,7 C 3,1 km/h (1 Bft)
12/06/2008 21:00 18,5 C 89 % 1005,8 hPa 0,0 l/m 0,8 km/h (0 Bft) S 0,00 h 0,025 mm 7 W/m 16,6 C 18,5 C 1,3 km/h (1 Bft)
12/06/2008 22:00 17,8 C 90 % 1006,1 hPa 0,0 l/m 0,1 km/h (0 Bft) S 0,00 h 0,000 mm 0 W/m 16,1 C 17,8 C 0,2 km/h (0 Bft)
12/06/2008 23:00 17,4 C 91 % 1006,1 hPa 0,0 l/m 0,1 km/h (0 Bft) S 0,00 h 0,025 mm 0 W/m 15,9 C 17,4 C 0,2 km/h (0 Bft)
13/06/2008 00:00 17,1 C 92 % 1005,8 hPa 0,0 l/m 0,6 km/h (0 Bft) S 0,00 h 0,025 mm 0 W/m 15,7 C 17,1 C 1,6 km/h (1 Bft)
13/06/2008 01:00 16,5 C 93 % 1005,6 hPa 0,0 l/m 2,0 km/h (1 Bft) N-NE 0,00 h 0,025 mm 0 W/m 15,2 C 16,5 C 3,8 km/h (1 Bft)
13/06/2008 02:00 15,9 C 93 % 1005,2 hPa 0,0 l/m 2,1 km/h (1 Bft) NO 0,00 h 0,025 mm 0 W/m 14,8 C 15,9 C 3,7 km/h (1 Bft)
13/06/2008 03:00 15,7 C 93 % 1005,2 hPa 0,0 l/m 1,1 km/h (1 Bft) N-NO 0,00 h 0,025 mm 0 W/m 14,7 C 15,7 C 2,5 km/h (1 Bft)
13/06/2008 04:00 15,8 C 94 % 1005,1 hPa 0,0 l/m 2,4 km/h (1 Bft) NO 0,00 h 0,000 mm 0 W/m 14,9 C 15,8 C 4,2 km/h (1 Bft)
13/06/2008 05:00 15,1 C 94 % 1005,0 hPa 0,0 l/m 5,6 km/h (1 Bft) O-NO 0,00 h 0,000 mm 0 W/m 14,2 C 15,1 C 8,1 km/h (2 Bft)
13/06/2008 06:00 14,8 C 93 % 1005,0 hPa 0,0 l/m 6,2 km/h (2 Bft) O-NO 0,00 h 0,000 mm 37 W/m 13,6 C 14,8 C 8,8 km/h (2 Bft)
13/06/2008 07:00 16,2 C 83 % 1005,3 hPa 0,0 l/m 6,3 km/h (2 Bft) O-NO 0,00 h 0,025 mm 102 W/m 13,2 C 16,2 C 9,1 km/h (2 Bft)
13/06/2008 08:00 17,9 C 75 % 1005,1 hPa 0,0 l/m 1,5 km/h (1 Bft) SO 0,38 h 0,076 mm 224 W/m 13,3 C 17,9 C 3,1 km/h (1 Bft)
13/06/2008 09:00 19,8 C 73 % 1005,2 hPa 0,0 l/m 1,8 km/h (1 Bft) E 0,43 h 0,127 mm 310 W/m 14,9 C 19,8 C 3,7 km/h (1 Bft)
13/06/2008 10:00 21,8 C 66 % 1005,3 hPa 0,0 l/m 4,3 km/h (1 Bft) S 0,95 h 0,203 mm 647 W/m 15,2 C 21,8 C 7,2 km/h (2 Bft)
13/06/2008 11:00 23,3 C 63 % 1005,2 hPa 0,0 l/m 5,8 km/h (2 Bft) E-SE 0,82 h 0,406 mm 755 W/m 15,8 C 23,3 C 9,1 km/h (2 Bft)
13/06/2008 12:00 23,3 C 66 % 1005,2 hPa 0,0 l/m 8,0 km/h (2 Bft) S 0,43 h 0,483 mm 589 W/m 16,6 C 23,3 C 13,3 km/h (3 Bft)
13/06/2008 13:00 23,8 C 64 % 1005,1 hPa 0,0 l/m 10,5 km/h (2 Bft) S-SE 0,77 h 0,381 mm 803 W/m 16,5 C 23,8 C 16,8 km/h (3 Bft)
13/06/2008 14:00 24,4 C 62 % 1005,0 hPa 0,0 l/m 12,5 km/h (3 Bft) E 0,77 h 0,584 mm 852 W/m 16,7 C 24,4 C 18,9 km/h (3 Bft)
13/06/2008 15:00 24,0 C 65 % 1005,2 hPa 0,0 l/m 12,7 km/h (3 Bft) E 0,75 h 0,584 mm 778 W/m 17,0 C 24,0 C 19,0 km/h (3 Bft)
13/06/2008 16:00 24,6 C 64 % 1005,2 hPa 0,0 l/m 11,8 km/h (2 Bft) E-NE 1,00 h 0,559 mm 766 W/m 17,2 C 24,6 C 18,3 km/h (3 Bft)
13/06/2008 17:00 22,6 C 73 % 1005,5 hPa 0,0 l/m 13,9 km/h (3 Bft) E-NE 0,37 h 0,533 mm 372 W/m 17,5 C 22,6 C 19,6 km/h (3 Bft)
13/06/2008 18:00 21,3 C 74 % 1005,8 hPa 0,0 l/m 11,3 km/h (2 Bft) E-NE 0,33 h 0,279 mm 198 W/m 16,5 C 21,3 C 17,1 km/h (3 Bft)
13/06/2008 19:00 20,0 C 75 % 1006,2 hPa 0,0 l/m 4,0 km/h (1 Bft) E 0,38 h 0,178 mm 108 W/m 15,3 C 20,0 C 6,8 km/h (2 Bft)
13/06/2008 20:00 19,6 C 73 % 1006,5 hPa 0,0 l/m 1,4 km/h (1 Bft) SE 0,00 h 0,076 mm 26 W/m 14,6 C 19,6 C 3,2 km/h (1 Bft)
13/06/2008 21:00 18,6 C 77 % 1007,0 hPa 0,0 l/m 2,1 km/h (1 Bft) O-SO 0,00 h 0,025 mm 5 W/m 14,4 C 18,6 C 3,3 km/h (1 Bft)
13/06/2008 22:00 17,9 C 79 % 1007,3 hPa 0,0 l/m 1,5 km/h (1 Bft) O-SO 0,00 h 0,025 mm 0 W/m 14,3 C 17,9 C 2,6 km/h (1 Bft)
13/06/2008 23:00 17,2 C 81 % 1007,0 hPa 0,0 l/m 3,3 km/h (1 Bft) O-SO 0,00 h 0,025 mm 0 W/m 13,9 C 17,2 C 4,6 km/h (1 Bft)
14/06/2008 00:00 16,7 C 83 % 1006,8 hPa 0,0 l/m 5,3 km/h (1 Bft) O-NO 0,00 h 0,025 mm 0 W/m 13,8 C 16,7 C 6,6 km/h (2 Bft)
14/06/2008 01:00 16,1 C 86 % 1006,3 hPa 0,0 l/m 10,0 km/h (2 Bft) O-NO 0,00 h 0,025 mm 0 W/m 13,7 C 16,1 C 13,6 km/h (3 Bft)
14/06/2008 02:00 15,2 C 87 % 1005,6 hPa 0,0 l/m 4,2 km/h (1 Bft) N-NE 0,00 h 0,025 mm 0 W/m 13,1 C 15,2 C 6,7 km/h (2 Bft)
14/06/2008 03:00 14,4 C 87 % 1005,8 hPa 0,0 l/m 5,6 km/h (1 Bft) SO 0,00 h 0,025 mm 0 W/m 12,3 C 14,4 C 6,6 km/h (2 Bft)
14/06/2008 04:00 14,3 C 83 % 1006,1 hPa 0,0 l/m 3,1 km/h (1 Bft) O-SO 0,00 h 0,025 mm 0 W/m 11,4 C 14,3 C 4,5 km/h (1 Bft)
14/06/2008 05:00 14,1 C 81 % 1006,6 hPa 0,0 l/m 3,1 km/h (1 Bft) N 0,00 h 0,025 mm 5 W/m 10,9 C 14,1 C 5,8 km/h (2 Bft)
14/06/2008 06:00 14,6 C 80 % 1007,5 hPa 0,0 l/m 3,7 km/h (1 Bft) N 0,00 h 0,025 mm 27 W/m 11,2 C 14,6 C 6,3 km/h (2 Bft)
14/06/2008 07:00 16,2 C 80 % 1008,4 hPa 0,0 l/m 4,9 km/h (1 Bft) NE 0,43 h 0,025 mm 153 W/m 12,8 C 16,2 C 7,2 km/h (2 Bft)
14/06/2008 08:00 18,6 C 67 % 1009,0 hPa 0,0 l/m 3,1 km/h (1 Bft) S-SE 0,77 h 0,102 mm 329 W/m 12,5 C 18,6 C 5,9 km/h (2 Bft)
14/06/2008 09:00 18,9 C 65 % 1009,5 hPa 0,0 l/m 4,0 km/h (1 Bft) S-SO 0,43 h 0,203 mm 360 W/m 12,1 C 18,9 C 6,7 km/h (2 Bft)
14/06/2008 10:00 19,6 C 65 % 1009,7 hPa 0,0 l/m 10,8 km/h (2 Bft) SO 0,97 h 0,229 mm 526 W/m 12,8 C 19,6 C 15,5 km/h (3 Bft)
14/06/2008 11:00 20,1 C 62 % 1010,0 hPa 0,0 l/m 17,1 km/h (3 Bft) S-SO 0,85 h 0,356 mm 683 W/m 12,6 C 20,1 C 23,2 km/h (4 Bft)
14/06/2008 12:00 21,1 C 58 % 1010,2 hPa 0,0 l/m 18,3 km/h (3 Bft) S-SO 1,00 h 0,483 mm 861 W/m 12,4 C 21,1 C 25,1 km/h (4 Bft)
14/06/2008 13:00 21,3 C 57 % 1010,5 hPa 0,0 l/m 22,1 km/h (4 Bft) S 1,00 h 0,610 mm 905 W/m 12,4 C 21,3 C 29,6 km/h (5 Bft)
14/06/2008 14:00 21,1 C 61 % 1010,5 hPa 0,0 l/m 21,4 km/h (4 Bft) S 0,93 h 0,686 mm 890 W/m 13,3 C 21,1 C 28,9 km/h (5 Bft)
14/06/2008 15:00 20,0 C 65 % 1010,7 hPa 0,0 l/m 17,4 km/h (3 Bft) S-SE 0,15 h 0,635 mm 413 W/m 13,2 C 20,0 C 24,6 km/h (4 Bft)
14/06/2008 16:00 19,5 C 66 % 1010,8 hPa 0,0 l/m 14,7 km/h (3 Bft) S-SE 0,17 h 0,330 mm 358 W/m 13,0 C 19,5 C 20,4 km/h (4 Bft)
14/06/2008 17:00 20,2 C 61 % 1010,4 hPa 0,0 l/m 14,6 km/h (3 Bft) S-SE 0,80 h 0,279 mm 511 W/m 12,6 C 20,2 C 20,5 km/h (4 Bft)
14/06/2008 18:00 20,2 C 58 % 1010,4 hPa 0,0 l/m 13,5 km/h (3 Bft) S 0,38 h 0,381 mm 287 W/m 11,6 C 20,2 C 19,0 km/h (3 Bft)
14/06/2008 19:00 19,2 C 61 % 1010,8 hPa 0,0 l/m 9,8 km/h (2 Bft) S-SE 0,38 h 0,254 mm 183 W/m 11,6 C 19,2 C 14,8 km/h (3 Bft)
14/06/2008 20:00 18,3 C 65 % 1011,1 hPa 0,0 l/m 3,6 km/h (1 Bft) S-SE 0,05 h 0,152 mm 38 W/m 11,5 C 18,3 C 6,0 km/h (2 Bft)
14/06/2008 21:00 16,7 C 71 % 1011,3 hPa 0,0 l/m 2,2 km/h (1 Bft) NE 0,02 h 0,051 mm 7 W/m 11,5 C 16,7 C 4,1 km/h (1 Bft)
14/06/2008 22:00 15,0 C 76 % 1011,7 hPa 0,0 l/m 1,1 km/h (0 Bft) NE 0,00 h 0,025 mm 0 W/m 10,9 C 15,0 C 2,9 km/h (1 Bft)
14/06/2008 23:00 14,5 C 80 % 1011,8 hPa 0,0 l/m 3,4 km/h (1 Bft) N-NO 0,00 h 0,025 mm 0 W/m 11,1 C 14,5 C 6,0 km/h (2 Bft)
15/06/2008 00:00 14,2 C 81 % 1011,4 hPa 0,0 l/m 3,6 km/h (1 Bft) N-NO 0,00 h 0,025 mm 0 W/m 11,0 C 14,2 C 6,3 km/h (2 Bft)
15/06/2008 01:00 14,1 C 80 % 1011,3 hPa 0,0 l/m 4,7 km/h (1 Bft) NO 0,00 h 0,025 mm 0 W/m 10,7 C 14,1 C 7,5 km/h (2 Bft)
15/06/2008 02:00 13,9 C 79 % 1010,9 hPa 0,0 l/m 5,5 km/h (1 Bft) O-NO 0,00 h 0,025 mm 0 W/m 10,3 C 13,9 C 8,8 km/h (2 Bft)
15/06/2008 03:00 13,5 C 79 % 1010,7 hPa 0,0 l/m 5,1 km/h (1 Bft) O-NO 0,00 h 0,025 mm 0 W/m 10,0 C 13,5 C 8,1 km/h (2 Bft)
15/06/2008 04:00 13,2 C 78 % 1010,4 hPa 0,0 l/m 5,9 km/h (2 Bft) O-NO 0,00 h 0,025 mm 0 W/m 9,4 C 13,2 C 8,7 km/h (2 Bft)
15/06/2008 05:00 12,7 C 80 % 1010,3 hPa 0,0 l/m 4,9 km/h (1 Bft) NO 0,00 h 0,025 mm 7 W/m 9,3 C 12,7 C 7,4 km/h (2 Bft)
15/06/2008 06:00 13,5 C 77 % 1010,3 hPa 0,0 l/m 3,2 km/h (1 Bft) O-NO 0,27 h 0,025 mm 47 W/m 9,6 C 13,5 C 5,7 km/h (1 Bft)
15/06/2008 07:00 15,1 C 74 % 1010,3 hPa 0,0 l/m 2,2 km/h (1 Bft) O-NO 0,00 h 0,051 mm 120 W/m 10,5 C 15,1 C 4,4 km/h (1 Bft)
15/06/2008 08:00 16,3 C 75 % 1010,3 hPa 0,0 l/m 0,9 km/h (0 Bft) O-NO 0,08 h 0,076 mm 181 W/m 11,8 C 16,3 C 1,6 km/h (1 Bft)
15/06/2008 09:00 17,4 C 71 % 1011,0 hPa 0,0 l/m 7,0 km/h (2 Bft) SO 0,22 h 0,102 mm 297 W/m 12,1 C 17,4 C 9,9 km/h (2 Bft)
15/06/2008 10:00 19,4 C 63 % 1010,5 hPa 0,0 l/m 8,0 km/h (2 Bft) S 0,95 h 0,203 mm 568 W/m 12,2 C 19,4 C 12,1 km/h (2 Bft)
15/06/2008 11:00 21,2 C 58 % 1010,3 hPa 0,0 l/m 5,3 km/h (1 Bft) S 1,00 h 0,381 mm 753 W/m 12,5 C 21,2 C 8,4 km/h (2 Bft)
15/06/2008 12:00 21,0 C 59 % 1010,3 hPa 0,0 l/m 10,2 km/h (2 Bft) S 0,37 h 0,483 mm 494 W/m 12,6 C 21,0 C 15,4 km/h (3 Bft)
15/06/2008 13:00 21,5 C 57 % 1010,1 hPa 0,0 l/m 14,8 km/h (3 Bft) S 0,77 h 0,356 mm 844 W/m 12,5 C 21,5 C 21,6 km/h (4 Bft)
15/06/2008 14:00 21,0 C 57 % 1010,1 hPa 0,0 l/m 13,1 km/h (3 Bft) S 0,27 h 0,610 mm 472 W/m 12,0 C 21,0 C 18,0 km/h (3 Bft)
15/06/2008 15:00 21,8 C 54 % 1009,4 hPa 0,0 l/m 4,5 km/h (1 Bft) SE 0,63 h 0,356 mm 611 W/m 12,1 C 21,8 C 7,2 km/h (2 Bft)
15/06/2008 16:00 22,5 C 47 % 1008,7 hPa 0,0 l/m 11,1 km/h (2 Bft) SO 0,33 h 0,406 mm 376 W/m 10,4 C 22,5 C 16,4 km/h (3 Bft)
15/06/2008 17:00 21,5 C 41 % 1008,0 hPa 0,0 l/m 21,1 km/h (4 Bft) SO 0,00 h 0,330 mm 170 W/m 7,5 C 21,5 C 27,8 km/h (4 Bft)
15/06/2008 18:00 20,9 C 43 % 1007,6 hPa 0,0 l/m 23,4 km/h (4 Bft) SO 0,00 h 0,305 mm 127 W/m 7,8 C 20,9 C 30,7 km/h (5 Bft)
15/06/2008 19:00 20,4 C 46 % 1007,5 hPa 0,0 l/m 18,2 km/h (3 Bft) SO 0,00 h 0,279 mm 79 W/m 8,5 C 20,4 C 23,0 km/h (4 Bft)
15/06/2008 20:00 19,8 C 47 % 1007,5 hPa 0,0 l/m 15,1 km/h (3 Bft) SO 0,00 h 0,203 mm 24 W/m 8,1 C 19,8 C 19,8 km/h (4 Bft)
15/06/2008 21:00 19,4 C 46 % 1007,3 hPa 0,0 l/m 7,8 km/h (2 Bft) O-SO 0,00 h 0,127 mm 0 W/m 7,4 C 19,4 C 11,2 km/h (2 Bft)
15/06/2008 22:00 18,6 C 52 % 1007,8 hPa 0,0 l/m 7,1 km/h (2 Bft) SO 0,00 h 0,076 mm 0 W/m 8,4 C 18,6 C 10,0 km/h (2 Bft)
15/06/2008 23:00 17,8 C 58 % 1008,0 hPa 0,0 l/m 13,2 km/h (3 Bft) SO 0,00 h 0,076 mm 0 W/m 9,4 C 17,8 C 17,1 km/h (3 Bft)
Min-Date _ 15/06/08 15/06/08 13/06/08 - 09/06/08 - - - - 15/06/08 15/06/08 09/06/08
_ Min-Heure 04:56 16:52 04:15 - 00:01 - - - - 16:52 04:56 00:02
Minimum _ 12,6 C 37 % 1004,8 hPa - 0,0 km/h (0 Bft) - - - - 6,5 C 12,6 C 0,0 km/h (0 Bft)
Max-Date _ 11/06/08 13/06/08 10/06/08 12/06/08 15/06/08 - 09/06/08 14/06/08 12/06/08 12/06/08 11/06/08 15/06/08
_ Max-Heure 13:30 03:30 12:30 15:28 16:52 - 06:01 14:00 13:10 16:53 13:30 18:01
Maximum _ 26,2 C 94 % 1018,6 hPa 0,6 l/m 30,6 km/h
SO (5 Bft)
- 0,02 h 0,686 mm 1294 W/m 19,1 C 26,2 C 41,8 km/h
SO (6 Bft)
Moyenne _ 19,4 C 74 % 1011,3 hPa #0,6 l/m 5,6 km/h (1 Bft) E #58:11 h #32,663 mm 383 W/m 14,3 C 19,4 C 8,6 km/h (2 Bft)
Roquefort les pins